Myrtle Grove, Louisiana
Current Conditions -  °F | °C
As of 5:55 AM on Friday 24 Oct 2014 (Local Time) from K1B7 Reporting Station
Clear Clear  
Wind Chill: 68°   Ceiling: Unl
Heat Index: 68°   Visibility: 10mi
Dew Point: 57°   Wind: 12mph
Humidity: 68%   Direction: 20°NNE
Pressure: 30.06"   Gusts: NA
Location:  29.4927°N, 89.8165°W
Report Text: K1B7 241055Z 02010KT 10SM SKC 20/14 A3006
Loading
Personal Weather Stations






























Interactive Weather Map
Tropical Storm Tracking
New forecast layout! Learn more

10-Day Weather Forecast

Advertisements
Track Severe Weather on mobile